createdAt,value
2023-01-31T05:00:33.688Z,8.90
2023-01-31T05:11:38.478Z,5.60
2023-01-31T05:22:38.416Z,5.50
2023-01-31T05:33:38.241Z,5.70
2023-01-31T05:44:38.113Z,4.10
2023-01-31T05:55:38.011Z,5.20
2023-01-31T06:06:37.857Z,6.80
2023-01-31T06:17:37.743Z,5.00
2023-01-31T06:28:37.614Z,7.60
2023-01-31T06:39:37.524Z,5.90
2023-01-31T06:50:37.369Z,6.70
2023-01-31T07:01:37.355Z,5.40
2023-01-31T07:12:37.159Z,7.70
2023-01-31T07:23:37.034Z,6.20
2023-01-31T07:34:36.875Z,6.80
2023-01-31T07:45:37.200Z,7.10
2023-01-31T07:56:36.685Z,6.00
2023-01-31T08:07:36.513Z,6.80
2023-01-31T08:18:36.381Z,5.10
2023-01-31T08:29:36.255Z,5.30
2023-01-31T08:40:36.136Z,5.00
2023-01-31T08:51:36.032Z,4.30
2023-01-31T09:02:35.997Z,5.60
2023-01-31T09:13:35.770Z,6.10
2023-01-31T09:24:35.639Z,5.70
2023-01-31T09:35:35.528Z,4.60
2023-01-31T09:46:35.442Z,5.10
2023-01-31T09:57:35.932Z,5.40
2023-01-31T10:08:35.164Z,5.60
2023-01-31T10:19:35.032Z,5.60
2023-01-31T10:30:34.925Z,6.40
2023-01-31T10:41:34.795Z,6.80
2023-01-31T10:52:34.675Z,4.30
2023-01-31T11:03:34.525Z,5.10
2023-01-31T11:14:34.424Z,4.90
2023-01-31T11:25:34.295Z,4.10
2023-01-31T11:36:34.166Z,4.70
2023-01-31T11:47:34.041Z,4.70
2023-01-31T11:58:33.916Z,4.70
2023-01-31T12:09:33.819Z,4.60
2023-01-31T12:20:33.695Z,5.20
2023-01-31T12:31:33.606Z,5.30
2023-01-31T12:42:33.418Z,5.20
2023-01-31T12:53:33.320Z,4.90
2023-01-31T13:04:33.221Z,5.60
2023-01-31T13:15:33.039Z,3.60
2023-01-31T13:26:32.984Z,5.30
2023-01-31T13:37:32.815Z,6.20
2023-01-31T13:48:32.684Z,6.10
2023-01-31T13:59:32.553Z,7.10
2023-01-31T14:10:32.428Z,6.50
2023-01-31T14:21:32.331Z,5.80
2023-01-31T14:32:32.200Z,5.20
2023-01-31T14:43:32.053Z,5.60
2023-01-31T14:54:31.933Z,5.90
2023-01-31T15:05:31.801Z,5.80
2023-01-31T15:16:31.750Z,5.00
2023-01-31T15:27:31.558Z,6.30
2023-01-31T15:38:31.429Z,5.30
2023-01-31T15:49:40.052Z,5.20
2023-01-31T16:00:31.203Z,6.60
2023-01-31T16:11:33.428Z,4.50
2023-01-31T16:22:30.957Z,6.50
2023-01-31T16:33:30.809Z,4.30
2023-01-31T16:44:30.724Z,5.70
2023-01-31T16:55:30.583Z,3.80
2023-01-31T17:06:30.496Z,4.00
2023-01-31T17:17:30.338Z,3.50
2023-01-31T17:28:30.225Z,3.90
2023-01-31T17:39:30.068Z,3.90
2023-01-31T17:50:29.942Z,2.30
2023-01-31T18:01:29.888Z,3.10
2023-01-31T18:12:29.718Z,2.70
2023-01-31T18:23:29.577Z,4.40
2023-01-31T18:34:29.458Z,3.40
2023-01-31T18:45:29.337Z,3.60
2023-01-31T18:56:29.212Z,3.00
2023-01-31T19:07:29.092Z,2.70
2023-01-31T19:18:29.014Z,3.50
2023-01-31T19:29:28.860Z,2.60
2023-01-31T19:40:28.718Z,2.40
2023-01-31T19:51:28.608Z,2.50
2023-01-31T20:02:28.517Z,2.90
2023-01-31T20:13:28.345Z,2.30
2023-01-31T20:24:28.263Z,2.80
2023-01-31T20:35:28.110Z,2.60
2023-01-31T20:46:28.060Z,3.00
2023-01-31T20:57:27.855Z,2.70
2023-01-31T21:08:27.746Z,2.70
2023-01-31T21:19:27.628Z,1.10
2023-01-31T21:30:27.500Z,3.00
2023-01-31T21:41:27.377Z,2.50
2023-01-31T21:52:27.246Z,2.80
